createdAt,value
2023-01-21T00:00:44.112Z,14.20
2023-01-21T00:03:28.554Z,15.90
2023-01-21T00:06:01.625Z,17.20
2023-01-21T00:08:34.581Z,14.70
2023-01-21T00:11:14.849Z,17.30
2023-01-21T00:13:49.928Z,14.50
2023-01-21T00:16:24.936Z,13.90
2023-01-21T00:19:01.219Z,14.40
2023-01-21T00:21:34.616Z,21.70
2023-01-21T00:24:07.526Z,16.10
2023-01-21T00:26:44.899Z,12.60
2023-01-21T00:29:22.828Z,15.40
2023-01-21T00:32:02.741Z,15.70
2023-01-21T00:34:35.576Z,13.50
2023-01-21T00:37:08.116Z,13.20
2023-01-21T00:39:43.154Z,25.70
2023-01-21T00:42:15.785Z,18.60
2023-01-21T00:44:52.178Z,13.50
2023-01-21T00:47:24.634Z,12.00
2023-01-21T00:49:56.992Z,13.90
2023-01-21T00:52:29.430Z,18.30
2023-01-21T00:55:02.015Z,15.40
2023-01-21T00:57:34.704Z,16.50
2023-01-21T01:00:11.176Z,17.80
2023-01-21T01:02:47.370Z,17.90
2023-01-21T01:05:22.384Z,22.10
2023-01-21T01:07:54.791Z,17.20
2023-01-21T01:10:27.279Z,15.70
2023-01-21T01:13:00.893Z,21.00
2023-01-21T01:15:33.298Z,23.90
2023-01-21T01:18:05.742Z,15.70
2023-01-21T01:20:38.135Z,21.20
2023-01-21T01:23:10.660Z,24.20
2023-01-21T01:25:43.158Z,20.90
2023-01-21T01:28:15.519Z,18.10
2023-01-21T01:30:47.992Z,16.80
2023-01-21T01:33:20.485Z,26.40
2023-01-21T01:35:56.206Z,17.90
2023-01-21T01:38:28.657Z,19.10
2023-01-21T01:41:01.075Z,14.50
2023-01-21T01:43:54.875Z,14.80
2023-01-21T01:46:32.211Z,15.00
2023-01-21T01:49:14.670Z,13.90
2023-01-21T01:51:53.693Z,17.30
2023-01-21T01:54:30.319Z,13.50
2023-01-21T01:57:07.138Z,24.00
2023-01-21T01:59:40.648Z,20.80
2023-01-21T02:02:18.533Z,19.70
2023-01-21T02:04:56.607Z,16.50
2023-01-21T02:07:39.333Z,12.70
2023-01-21T02:10:14.522Z,16.50
2023-01-21T02:12:52.844Z,13.60
2023-01-21T02:15:33.737Z,14.90
2023-01-21T02:18:22.105Z,15.50
2023-01-21T02:21:26.552Z,25.70
2023-01-21T02:24:20.589Z,16.50
2023-01-21T02:27:29.954Z,13.10
2023-01-21T02:30:37.544Z,11.10
2023-01-21T02:33:42.154Z,11.90
2023-01-21T02:36:36.533Z,10.20
2023-01-21T02:39:21.823Z,13.20
2023-01-21T02:42:05.936Z,11.80
2023-01-21T02:44:42.720Z,12.90
2023-01-21T02:47:21.294Z,14.80
2023-01-21T02:49:57.785Z,14.70
2023-01-21T02:52:33.674Z,15.80
2023-01-21T02:55:09.324Z,11.00
2023-01-21T02:57:50.838Z,12.50
2023-01-21T03:00:30.307Z,16.90
2023-01-21T03:03:35.467Z,11.60
2023-01-21T03:06:42.683Z,11.90
2023-01-21T03:09:25.162Z,9.90
2023-01-21T03:12:33.887Z,12.80
2023-01-21T03:15:31.537Z,11.30
2023-01-21T03:18:20.757Z,12.60
2023-01-21T03:20:58.776Z,8.50
2023-01-21T03:23:40.202Z,9.40
2023-01-21T03:26:16.365Z,8.20
2023-01-21T03:28:54.098Z,9.20
2023-01-21T03:31:30.221Z,7.90
2023-01-21T03:34:08.046Z,8.50
2023-01-21T03:36:48.913Z,9.60
2023-01-21T03:39:31.640Z,8.80
2023-01-21T03:42:04.973Z,8.10
2023-01-21T03:44:37.994Z,10.20
2023-01-21T03:47:17.780Z,8.00
2023-01-21T03:49:55.530Z,9.70
2023-01-21T03:52:29.702Z,10.30
2023-01-21T03:55:02.077Z,10.70
2023-01-21T03:57:34.484Z,10.30
2023-01-21T04:00:09.263Z,9.10
2023-01-21T04:02:44.192Z,9.20
2023-01-21T04:05:16.910Z,10.50
2023-01-21T04:07:49.379Z,9.90
2023-01-21T04:10:21.867Z,12.70
2023-01-21T04:12:54.285Z,9.60
2023-01-21T04:15:26.806Z,10.40
2023-01-21T04:17:59.228Z,10.50
2023-01-21T04:20:33.580Z,9.90
2023-01-21T04:23:06.323Z,9.40
2023-01-21T04:25:38.900Z,9.50
2023-01-21T04:28:11.300Z,10.10
2023-01-21T04:30:43.742Z,9.00
2023-01-21T04:33:16.831Z,8.70
2023-01-21T04:35:49.139Z,13.90
2023-01-21T04:38:21.854Z,11.90
2023-01-21T04:40:57.076Z,11.50
2023-01-21T04:43:29.880Z,10.70
2023-01-21T04:46:02.810Z,9.70
2023-01-21T04:48:35.651Z,11.50
2023-01-21T04:51:08.630Z,13.90
2023-01-21T04:53:41.628Z,15.00
2023-01-21T04:56:14.234Z,20.20
2023-01-21T04:58:46.899Z,15.70
2023-01-21T05:01:20.179Z,16.60
2023-01-21T05:03:52.605Z,10.00
2023-01-21T05:06:24.974Z,11.00
2023-01-21T05:08:57.424Z,8.40
2023-01-21T05:11:32.591Z,9.90
2023-01-21T05:14:04.899Z,8.20
2023-01-21T05:16:37.709Z,11.00
2023-01-21T05:19:10.254Z,9.40
2023-01-21T05:21:43.032Z,8.10
2023-01-21T05:24:15.529Z,8.40
2023-01-21T05:26:49.805Z,8.30
2023-01-21T05:29:23.552Z,8.00
2023-01-21T05:31:58.814Z,8.90
2023-01-21T05:34:31.036Z,10.20
2023-01-21T05:37:03.435Z,9.40
2023-01-21T05:39:35.881Z,8.70
2023-01-21T05:42:10.558Z,10.10
2023-01-21T05:44:42.955Z,9.90
2023-01-21T05:47:15.460Z,23.90
2023-01-21T05:49:47.790Z,11.40
2023-01-21T05:52:22.973Z,9.70
2023-01-21T05:55:01.817Z,14.60
2023-01-21T05:57:35.609Z,10.70
2023-01-21T06:00:09.959Z,9.80
2023-01-21T06:02:42.416Z,11.10
2023-01-21T06:05:16.165Z,7.80
2023-01-21T06:07:48.520Z,10.40
2023-01-21T06:10:21.815Z,9.70
2023-01-21T06:12:54.737Z,7.30
2023-01-21T06:15:29.675Z,7.70
2023-01-21T06:18:02.466Z,8.40
2023-01-21T06:20:34.971Z,9.80
2023-01-21T06:23:07.406Z,8.30
2023-01-21T06:25:40.863Z,7.80
2023-01-21T06:28:14.120Z,9.00
2023-01-21T06:30:46.939Z,20.60
2023-01-21T06:33:19.395Z,9.80
2023-01-21T06:35:52.271Z,12.50
2023-01-21T06:38:24.571Z,12.00
2023-01-21T06:40:56.977Z,10.10
2023-01-21T06:43:32.055Z,9.70
2023-01-21T06:46:04.474Z,9.90
2023-01-21T06:48:36.838Z,9.50
2023-01-21T06:51:09.355Z,9.50
2023-01-21T06:53:41.770Z,8.80
2023-01-21T06:56:14.049Z,9.90
2023-01-21T06:58:46.545Z,9.20
2023-01-21T07:01:19.984Z,9.00
2023-01-21T07:03:52.552Z,10.60
2023-01-21T07:06:25.618Z,9.00
2023-01-21T07:08:57.970Z,9.90
2023-01-21T07:11:30.413Z,8.80
2023-01-21T07:14:02.804Z,12.00
2023-01-21T07:16:35.468Z,12.70
2023-01-21T07:19:08.107Z,12.10
2023-01-21T07:21:42.063Z,13.80
2023-01-21T07:24:15.291Z,14.90
2023-01-21T07:26:48.582Z,18.10
2023-01-21T07:29:23.360Z,15.90
2023-01-21T07:31:55.836Z,13.50
2023-01-21T07:34:28.166Z,16.50
2023-01-21T07:37:00.453Z,13.40
2023-01-21T07:39:33.121Z,10.30
2023-01-21T07:42:09.754Z,12.70
2023-01-21T07:44:42.615Z,11.30
2023-01-21T07:47:15.093Z,12.20
2023-01-21T07:49:50.194Z,12.40
2023-01-21T07:52:24.433Z,10.50
2023-01-21T07:54:56.988Z,12.10
2023-01-21T07:57:29.918Z,10.20
2023-01-21T08:00:05.086Z,12.10
2023-01-21T08:02:45.453Z,10.70
2023-01-21T08:05:18.796Z,10.20
2023-01-21T08:07:51.733Z,12.10
2023-01-21T08:10:24.036Z,9.90
2023-01-21T08:12:56.420Z,17.30
2023-01-21T08:15:29.234Z,20.20
2023-01-21T08:18:01.576Z,12.40
2023-01-21T08:20:34.533Z,14.00
2023-01-21T08:23:08.512Z,17.10
2023-01-21T08:25:41.808Z,16.50
2023-01-21T08:28:16.426Z,12.10
2023-01-21T08:30:49.335Z,18.00
2023-01-21T08:33:21.884Z,13.70
2023-01-21T08:35:54.581Z,12.10
2023-01-21T08:38:26.927Z,21.80
2023-01-21T08:41:00.575Z,13.10
2023-01-21T08:43:33.349Z,18.00
2023-01-21T08:46:06.272Z,15.60
2023-01-21T08:48:40.188Z,12.00
2023-01-21T08:51:14.393Z,12.60
2023-01-21T08:53:49.432Z,11.40
2023-01-21T08:56:21.974Z,12.80
2023-01-21T08:59:02.513Z,12.70
2023-01-21T09:01:36.287Z,15.30
2023-01-21T09:04:08.747Z,12.90
2023-01-21T09:06:41.410Z,15.10
2023-01-21T09:09:14.378Z,16.40
2023-01-21T09:11:46.950Z,13.30
2023-01-21T09:14:19.756Z,14.10
2023-01-21T09:16:52.323Z,16.00
2023-01-21T09:19:25.133Z,9.60
2023-01-21T09:21:59.208Z,12.90
2023-01-21T09:24:31.706Z,13.60
2023-01-21T09:27:07.042Z,11.70
2023-01-21T09:29:39.722Z,10.40
2023-01-21T09:32:12.447Z,10.40
2023-01-21T09:34:44.787Z,11.80
2023-01-21T09:37:20.090Z,11.80
2023-01-21T09:39:52.414Z,11.50
2023-01-21T09:42:29.300Z,15.80
2023-01-21T09:45:02.897Z,16.40
2023-01-21T09:47:39.350Z,15.30
2023-01-21T09:50:16.700Z,15.90
2023-01-21T09:52:52.171Z,22.80
2023-01-21T09:55:29.041Z,13.40
2023-01-21T09:58:21.281Z,15.00
2023-01-21T10:00:59.020Z,17.10
2023-01-21T10:03:39.454Z,20.10
2023-01-21T10:06:27.889Z,16.60
2023-01-21T10:09:15.208Z,18.60
2023-01-21T10:11:58.478Z,22.70
2023-01-21T10:14:51.901Z,17.80
2023-01-21T10:17:38.274Z,20.00
2023-01-21T10:20:23.257Z,14.50
2023-01-21T10:23:01.835Z,14.20
2023-01-21T10:25:37.641Z,12.30
2023-01-21T10:28:17.938Z,18.20
2023-01-21T10:30:53.505Z,17.40
2023-01-21T10:33:28.309Z,18.60
2023-01-21T10:36:29.611Z,22.40
2023-01-21T10:39:09.971Z,17.90
2023-01-21T10:41:56.120Z,15.70
2023-01-21T10:44:35.816Z,17.30
2023-01-21T10:47:18.590Z,19.20
2023-01-21T10:50:03.663Z,14.10
2023-01-21T10:52:45.443Z,21.00
2023-01-21T10:55:29.971Z,24.30
2023-01-21T10:58:11.394Z,22.00
2023-01-21T11:00:47.442Z,20.40
2023-01-21T11:03:31.050Z,19.80
2023-01-21T11:06:07.013Z,20.90
2023-01-21T11:08:41.220Z,26.80
2023-01-21T11:11:21.984Z,28.00
2023-01-21T11:13:54.355Z,22.50
2023-01-21T11:16:38.381Z,30.00
2023-01-21T11:19:13.132Z,26.20
2023-01-21T11:22:01.314Z,23.20
2023-01-21T11:24:43.151Z,23.50
2023-01-21T11:27:32.264Z,27.50
2023-01-21T11:30:20.833Z,22.40
2023-01-21T11:33:14.467Z,23.50
2023-01-21T11:35:47.151Z,28.80
2023-01-21T11:38:37.395Z,24.20
2023-01-21T11:41:19.221Z,25.30
2023-01-21T11:43:54.071Z,20.80
2023-01-21T11:46:36.487Z,16.40
2023-01-21T11:49:30.022Z,19.60
2023-01-21T11:52:20.890Z,19.10
2023-01-21T11:54:53.562Z,21.80
2023-01-21T11:57:31.961Z,18.60
2023-01-21T12:00:18.158Z,19.30
2023-01-21T12:02:54.662Z,20.90
2023-01-21T12:05:33.461Z,20.80
2023-01-21T12:08:08.346Z,23.40
2023-01-21T12:10:47.350Z,21.30
2023-01-21T12:13:23.046Z,21.20
2023-01-21T12:16:28.629Z,17.20
2023-01-21T12:19:34.680Z,17.90
2023-01-21T12:22:37.319Z,22.10
2023-01-21T12:28:11.717Z,16.60
2023-01-21T12:30:55.090Z,15.40
2023-01-21T12:33:46.098Z,16.60
2023-01-21T12:36:28.257Z,17.40
2023-01-21T12:39:14.605Z,17.40
2023-01-21T12:41:51.925Z,16.80
2023-01-21T12:44:33.862Z,21.60
2023-01-21T12:47:12.233Z,19.20
2023-01-21T12:50:01.367Z,21.40
2023-01-21T12:52:40.065Z,17.40
2023-01-21T12:55:19.884Z,19.30
2023-01-21T12:57:59.267Z,21.00
2023-01-21T13:00:38.263Z,18.10
2023-01-21T13:03:28.276Z,21.70
2023-01-21T13:06:04.513Z,17.80
2023-01-21T13:08:57.936Z,18.90
2023-01-21T13:11:36.126Z,19.10
2023-01-21T13:14:29.614Z,18.10
2023-01-21T13:17:07.842Z,21.40
2023-01-21T13:19:42.594Z,21.20
2023-01-21T13:22:28.870Z,24.40
2023-01-21T13:25:14.145Z,29.70
2023-01-21T13:27:53.527Z,27.10
2023-01-21T13:30:37.443Z,27.70
2023-01-21T13:33:24.996Z,33.80
2023-01-21T13:36:10.843Z,50.60
2023-01-21T13:38:51.441Z,35.10
2023-01-21T13:44:29.346Z,24.90
2023-01-21T13:47:19.157Z,23.90
2023-01-21T13:50:09.368Z,27.90
2023-01-21T13:52:52.586Z,25.80
2023-01-21T13:55:39.593Z,20.40
2023-01-21T13:58:14.429Z,23.80
2023-01-21T14:00:54.690Z,23.40
2023-01-21T14:03:35.545Z,21.20
2023-01-21T14:06:12.855Z,20.50
2023-01-21T14:08:49.473Z,20.70
2023-01-21T14:11:25.849Z,20.80
2023-01-21T14:14:21.168Z,20.30
2023-01-21T14:17:29.298Z,20.20
2023-01-21T14:20:40.802Z,18.10
2023-01-21T14:23:42.536Z,19.40
2023-01-21T14:26:29.245Z,20.00
2023-01-21T14:29:09.952Z,20.90
2023-01-21T14:31:47.408Z,20.90
2023-01-21T14:34:26.970Z,21.40
2023-01-21T14:37:07.353Z,44.00
2023-01-21T14:39:52.620Z,32.60
2023-01-21T14:42:43.879Z,28.80
2023-01-21T14:45:17.764Z,24.70
2023-01-21T14:47:53.598Z,23.00
2023-01-21T14:50:52.454Z,23.30
2023-01-21T14:53:27.880Z,57.70
2023-01-21T14:56:16.689Z,41.90
2023-01-21T14:58:52.001Z,41.60
2023-01-21T15:01:38.514Z,45.10
2023-01-21T15:04:25.797Z,36.60
2023-01-21T15:07:00.564Z,38.30
2023-01-21T15:09:39.695Z,33.40
2023-01-21T15:12:21.077Z,34.80
2023-01-21T15:14:57.034Z,37.60
2023-01-21T15:18:03.451Z,60.20
2023-01-21T15:20:50.514Z,63.70
2023-01-21T15:23:38.916Z,81.50
2023-01-21T15:26:42.460Z,39.20
2023-01-21T15:29:35.815Z,35.60
2023-01-21T15:32:27.574Z,30.70
2023-01-21T15:35:02.781Z,26.50
2023-01-21T15:37:40.397Z,24.00
2023-01-21T15:40:20.849Z,24.60
2023-01-21T15:43:01.906Z,24.30
2023-01-21T15:45:44.217Z,25.70
2023-01-21T15:48:49.640Z,26.40
2023-01-21T15:51:34.218Z,24.90
2023-01-21T15:54:21.716Z,27.20
2023-01-21T15:57:09.165Z,27.30
2023-01-21T16:00:04.275Z,25.30
2023-01-21T16:02:52.239Z,24.80
2023-01-21T16:05:32.835Z,25.30
2023-01-21T16:08:18.990Z,26.00
2023-01-21T16:11:03.482Z,27.10
2023-01-21T16:13:48.417Z,26.70
2023-01-21T16:16:34.485Z,31.00
2023-01-21T16:19:13.646Z,29.60
2023-01-21T16:21:50.506Z,29.10
2023-01-21T16:24:27.466Z,28.50
2023-01-21T16:27:19.150Z,27.50
2023-01-21T16:29:57.850Z,26.30
2023-01-21T16:32:32.506Z,25.80
2023-01-21T16:35:05.775Z,26.10
2023-01-21T16:37:38.377Z,26.00
2023-01-21T16:40:30.488Z,27.00
2023-01-21T16:43:22.778Z,25.90
2023-01-21T16:45:57.116Z,26.40
2023-01-21T16:48:32.991Z,26.60
2023-01-21T16:51:05.789Z,25.00
2023-01-21T16:53:38.210Z,26.60
2023-01-21T16:56:27.312Z,26.40
2023-01-21T16:58:59.592Z,25.60
2023-01-21T17:01:32.879Z,25.10
2023-01-21T17:04:05.775Z,24.60
2023-01-21T17:06:38.419Z,26.10
2023-01-21T17:09:26.261Z,25.90
2023-01-21T17:12:02.447Z,28.20
2023-01-21T17:14:36.419Z,24.80
2023-01-21T17:17:10.475Z,30.30
2023-01-21T17:19:45.361Z,31.40
2023-01-21T17:22:22.027Z,31.70
2023-01-21T17:25:03.856Z,31.50
2023-01-21T17:27:39.025Z,32.00
2023-01-21T17:30:32.187Z,31.20
2023-01-21T17:33:07.374Z,28.60
2023-01-21T17:35:59.704Z,28.90
2023-01-21T17:38:32.192Z,31.00
2023-01-21T17:41:08.330Z,29.80
2023-01-21T17:43:49.047Z,31.90
2023-01-21T17:46:23.160Z,30.10
2023-01-21T17:49:02.002Z,29.50
2023-01-21T17:51:35.056Z,28.60
2023-01-21T17:54:09.518Z,30.90
2023-01-21T17:56:49.609Z,30.80
2023-01-21T17:59:38.018Z,31.30
2023-01-21T18:02:15.175Z,30.30
2023-01-21T18:04:47.526Z,28.70
2023-01-21T18:07:24.859Z,32.10
2023-01-21T18:10:00.502Z,45.00
2023-01-21T18:12:33.033Z,47.40
2023-01-21T18:15:05.605Z,51.70
2023-01-21T18:17:46.665Z,50.40
2023-01-21T18:20:21.601Z,45.00
2023-01-21T18:22:57.084Z,47.50
2023-01-21T18:25:30.140Z,51.20
2023-01-21T18:28:02.871Z,52.00
2023-01-21T18:30:35.500Z,59.80
2023-01-21T18:33:07.968Z,67.50
2023-01-21T18:35:41.350Z,63.20
2023-01-21T18:38:16.210Z,65.90
2023-01-21T18:40:49.246Z,77.30
2023-01-21T18:43:21.745Z,70.00
2023-01-21T18:45:54.760Z,66.50
2023-01-21T18:48:32.171Z,65.80
2023-01-21T18:51:04.788Z,66.10
2023-01-21T18:53:37.151Z,67.30
2023-01-21T18:56:13.910Z,66.20
2023-01-21T18:58:46.362Z,70.30
2023-01-21T19:01:23.520Z,69.00
2023-01-21T19:03:58.320Z,69.60
2023-01-21T19:06:30.605Z,74.20
2023-01-21T19:09:02.966Z,83.30
2023-01-21T19:11:35.393Z,75.20
2023-01-21T19:14:07.757Z,72.70
2023-01-21T19:16:41.009Z,66.20
2023-01-21T19:19:16.022Z,76.30
2023-01-21T19:21:48.655Z,75.60
2023-01-21T19:24:21.922Z,80.40
2023-01-21T19:26:54.685Z,70.60
2023-01-21T19:29:35.417Z,71.60
2023-01-21T19:32:14.479Z,76.00
2023-01-21T19:34:47.241Z,78.90
2023-01-21T19:37:23.667Z,83.30
2023-01-21T19:39:56.056Z,67.60
2023-01-21T19:42:28.327Z,74.80
2023-01-21T19:45:00.631Z,97.90
2023-01-21T19:47:38.265Z,104.50
2023-01-21T19:50:17.826Z,102.10
2023-01-21T19:52:52.719Z,94.70
2023-01-21T19:55:26.645Z,84.70
2023-01-21T19:58:02.102Z,96.00
2023-01-21T20:00:36.457Z,95.90
2023-01-21T20:03:10.406Z,96.40
2023-01-21T20:05:43.371Z,92.00
2023-01-21T20:08:20.171Z,88.20
2023-01-21T20:10:53.043Z,91.80
2023-01-21T20:13:26.349Z,85.00
2023-01-21T20:16:02.700Z,89.30
2023-01-21T20:18:35.251Z,90.10
2023-01-21T20:21:07.997Z,88.50
2023-01-21T20:23:40.344Z,88.20
2023-01-21T20:26:18.287Z,87.10
2023-01-21T20:28:54.484Z,85.10
2023-01-21T20:31:27.405Z,85.50
2023-01-21T20:33:59.960Z,82.30
2023-01-21T20:36:32.577Z,78.20
2023-01-21T20:39:05.204Z,79.30
2023-01-21T20:41:41.138Z,70.20
2023-01-21T20:44:13.491Z,70.50
2023-01-21T20:46:45.900Z,76.30
2023-01-21T20:49:18.533Z,74.00
2023-01-21T20:51:50.984Z,77.70
2023-01-21T20:54:24.869Z,76.10
2023-01-21T20:56:57.130Z,68.10
2023-01-21T20:59:29.521Z,65.80
2023-01-21T21:02:01.962Z,68.20
2023-01-21T21:04:34.446Z,68.70
2023-01-21T21:07:06.716Z,66.80
2023-01-21T21:09:39.922Z,62.20
2023-01-21T21:12:12.550Z,63.50
2023-01-21T21:14:44.946Z,64.40
2023-01-21T21:17:17.283Z,78.30
2023-01-21T21:19:50.072Z,70.20
2023-01-21T21:22:22.416Z,72.80
2023-01-21T21:24:55.015Z,73.70
2023-01-21T21:27:27.431Z,70.50
2023-01-21T21:29:59.731Z,73.20
2023-01-21T21:32:32.296Z,74.60
2023-01-21T21:35:04.598Z,78.30
2023-01-21T21:37:37.047Z,67.20
2023-01-21T21:40:12.082Z,57.10
2023-01-21T21:43:02.156Z,59.80
2023-01-21T21:45:34.778Z,59.70
2023-01-21T21:48:32.340Z,61.20
2023-01-21T21:51:04.968Z,63.10
2023-01-21T21:53:37.366Z,62.70
2023-01-21T21:56:18.420Z,60.60
2023-01-21T22:02:06.630Z,67.20
2023-01-21T22:04:42.774Z,68.00
2023-01-21T22:07:15.264Z,66.20
2023-01-21T22:09:47.594Z,66.60
2023-01-21T22:12:19.889Z,67.00
2023-01-21T22:14:52.408Z,68.40
2023-01-21T22:17:24.975Z,70.70
2023-01-21T22:19:57.283Z,70.70
2023-01-21T22:22:29.687Z,67.70
2023-01-21T22:25:04.200Z,74.90
2023-01-21T22:27:36.599Z,78.80
2023-01-21T22:30:11.007Z,67.20
2023-01-21T22:32:45.845Z,60.50
2023-01-21T22:35:18.452Z,58.00
2023-01-21T22:37:54.090Z,61.90
2023-01-21T22:40:26.420Z,63.70
2023-01-21T22:42:58.910Z,59.00
2023-01-21T22:45:31.301Z,59.30
2023-01-21T22:48:03.902Z,54.40
2023-01-21T22:50:40.964Z,51.10
2023-01-21T22:53:13.407Z,59.90
2023-01-21T22:55:45.892Z,53.70
2023-01-21T22:58:19.823Z,53.40
2023-01-21T23:00:53.414Z,62.50
2023-01-21T23:03:27.087Z,60.00
2023-01-21T23:06:05.630Z,50.70
2023-01-21T23:08:39.051Z,46.20
2023-01-21T23:11:15.855Z,47.30
2023-01-21T23:13:49.291Z,45.70
2023-01-21T23:16:22.871Z,50.40
2023-01-21T23:18:55.188Z,48.60
2023-01-21T23:21:29.993Z,49.50
2023-01-21T23:24:02.405Z,50.50
2023-01-21T23:26:34.852Z,51.50
2023-01-21T23:29:07.218Z,50.00
2023-01-21T23:31:42.263Z,51.80
2023-01-21T23:34:16.789Z,53.50
2023-01-21T23:36:50.627Z,57.40
2023-01-21T23:39:22.989Z,53.00
2023-01-21T23:41:56.062Z,50.40
2023-01-21T23:44:28.630Z,52.50
2023-01-21T23:47:01.131Z,57.50
2023-01-21T23:49:33.623Z,55.00
2023-01-21T23:52:08.575Z,49.90
2023-01-21T23:54:41.070Z,46.60
2023-01-21T23:57:21.562Z,45.50
